createdAt,value
2022-10-13T00:01:59.647Z,22.63
2022-10-13T00:07:01.428Z,20.15
2022-10-13T00:12:03.343Z,22.27
2022-10-13T00:17:05.347Z,29.45
2022-10-13T00:22:07.113Z,22.17
2022-10-13T00:27:08.835Z,27.73
2022-10-13T00:32:10.627Z,20.77
2022-10-13T00:37:12.452Z,23.67
2022-10-13T00:42:14.423Z,26.27
2022-10-13T00:47:16.397Z,38.17
2022-10-13T00:52:20.359Z,28.10
2022-10-13T00:57:23.220Z,20.20
2022-10-13T01:02:32.199Z,24.55
2022-10-13T01:07:34.839Z,19.48
2022-10-13T01:12:56.623Z,23.38
2022-10-13T01:18:12.340Z,17.60
2022-10-13T01:23:52.142Z,22.55
2022-10-13T01:29:28.664Z,17.98
2022-10-13T01:34:40.588Z,21.40
2022-10-13T01:39:48.712Z,26.60
2022-10-13T01:44:58.879Z,23.88
2022-10-13T02:03:22.378Z,25.75
2022-10-13T02:08:45.537Z,17.05
2022-10-13T02:14:09.091Z,17.35
2022-10-13T02:19:14.721Z,17.65
2022-10-13T02:24:16.753Z,19.25
2022-10-13T02:29:19.040Z,16.58
2022-10-13T02:34:20.784Z,19.40
2022-10-13T02:39:22.528Z,27.88
2022-10-13T02:44:24.918Z,18.63
2022-10-13T02:49:26.628Z,22.58
2022-10-13T02:54:28.400Z,15.55
2022-10-13T02:59:30.616Z,16.55
2022-10-13T03:04:32.470Z,14.50
2022-10-13T03:09:34.216Z,21.45
2022-10-13T03:14:36.062Z,20.48
2022-10-13T03:19:37.931Z,17.42
2022-10-13T03:24:39.655Z,16.88
2022-10-13T03:29:41.569Z,18.85
2022-10-13T03:34:43.276Z,19.40
2022-10-13T03:39:45.135Z,18.33
2022-10-13T03:44:52.351Z,22.67
2022-10-13T03:49:57.239Z,26.55
2022-10-13T03:54:59.242Z,24.23
2022-10-13T04:00:01.751Z,21.38
2022-10-13T04:05:03.815Z,21.92
2022-10-13T04:10:10.212Z,26.13
2022-10-13T04:15:13.070Z,19.35
2022-10-13T04:20:14.909Z,20.80
2022-10-13T04:25:16.717Z,23.73
2022-10-13T04:30:18.455Z,25.10
2022-10-13T04:35:20.207Z,24.92
2022-10-13T04:40:22.501Z,26.10
2022-10-13T04:45:24.217Z,23.50
2022-10-13T04:50:25.975Z,20.58
2022-10-13T04:55:27.788Z,22.05
2022-10-13T05:00:29.641Z,22.20
2022-10-13T05:05:34.719Z,20.77
2022-10-13T05:10:36.563Z,33.80
2022-10-13T05:15:39.400Z,24.58
2022-10-13T05:20:41.163Z,25.15
2022-10-13T05:25:43.192Z,37.90
2022-10-13T05:30:44.919Z,29.17
2022-10-13T05:35:46.685Z,32.58
2022-10-13T05:40:48.705Z,37.20
2022-10-13T05:45:50.416Z,39.13
2022-10-13T05:50:52.732Z,33.17
2022-10-13T05:55:57.552Z,51.15
2022-10-13T06:00:59.399Z,23.63
2022-10-13T06:06:01.479Z,32.28
2022-10-13T06:11:04.130Z,20.00
2022-10-13T06:16:06.087Z,23.30
2022-10-13T06:21:07.844Z,15.45
2022-10-13T06:26:09.563Z,14.70
2022-10-13T06:31:11.347Z,13.40
2022-10-13T06:36:13.123Z,17.35
2022-10-13T06:41:15.178Z,20.15
2022-10-13T06:46:17.311Z,30.02
2022-10-13T06:51:19.410Z,38.20
2022-10-13T06:56:21.236Z,44.90
2022-10-13T07:01:23.055Z,55.60
2022-10-13T07:06:25.220Z,37.65
2022-10-13T07:11:27.061Z,50.42
2022-10-13T07:16:28.856Z,54.65
2022-10-13T07:21:30.783Z,33.65
2022-10-13T07:26:33.925Z,28.35
2022-10-13T07:31:35.664Z,35.80
2022-10-13T07:36:40.640Z,16.27
2022-10-13T07:41:42.394Z,18.00
2022-10-13T07:46:44.262Z,30.17
2022-10-13T07:51:45.974Z,31.15
2022-10-13T07:56:52.606Z,29.90
2022-10-13T08:01:54.435Z,25.58
2022-10-13T08:06:56.231Z,22.30
2022-10-13T08:12:00.928Z,18.33
2022-10-13T08:17:03.639Z,18.73
2022-10-13T08:22:09.176Z,18.65
2022-10-13T08:27:21.991Z,19.17
2022-10-13T08:32:23.885Z,15.35
2022-10-13T08:37:25.635Z,18.00
2022-10-13T08:42:27.650Z,20.20
2022-10-13T08:47:45.011Z,20.30
2022-10-13T08:53:02.783Z,24.85
2022-10-13T08:58:19.368Z,21.83
2022-10-13T09:03:29.120Z,18.02
2022-10-13T09:08:39.701Z,20.45
2022-10-13T09:13:41.487Z,21.17
2022-10-13T09:18:43.420Z,26.60
2022-10-13T09:23:45.738Z,18.52
2022-10-13T09:28:48.282Z,23.40
2022-10-13T09:34:03.048Z,21.90
2022-10-13T09:39:07.011Z,21.98
2022-10-13T09:44:19.600Z,17.80
2022-10-13T09:49:41.271Z,19.60
2022-10-13T09:54:48.045Z,20.98
2022-10-13T09:59:53.998Z,17.43
2022-10-13T10:05:00.034Z,17.15
2022-10-13T10:10:13.258Z,12.48
2022-10-13T10:15:21.999Z,16.42
2022-10-13T10:20:39.033Z,24.50
2022-10-13T10:25:45.546Z,13.07
2022-10-13T10:30:57.604Z,31.15
2022-10-13T10:36:08.675Z,15.75
2022-10-13T10:41:23.438Z,12.00
2022-10-13T10:46:30.542Z,12.55
2022-10-13T10:51:36.708Z,14.73
2022-10-13T10:56:49.231Z,16.98
2022-10-13T11:02:30.402Z,13.48
2022-10-13T11:07:32.116Z,12.52
2022-10-13T11:12:52.226Z,15.00
2022-10-13T11:17:54.459Z,12.65
2022-10-13T11:22:59.327Z,11.60
2022-10-13T11:28:21.070Z,19.30
2022-10-13T11:33:35.147Z,16.08
2022-10-13T11:38:38.803Z,13.48
2022-10-13T11:44:15.684Z,15.95
2022-10-13T11:49:46.863Z,15.65
2022-10-13T11:54:56.911Z,13.88
2022-10-13T11:59:58.781Z,16.70
2022-10-13T12:05:20.860Z,11.25
2022-10-13T12:10:35.510Z,9.25
2022-10-13T12:15:43.341Z,11.98
2022-10-13T12:20:56.349Z,12.75
2022-10-13T12:25:59.107Z,13.10
2022-10-13T12:31:01.160Z,12.43
2022-10-13T12:36:13.065Z,16.05
2022-10-13T12:41:28.605Z,10.57
2022-10-13T12:46:43.707Z,12.45
2022-10-13T12:51:48.224Z,10.77
2022-10-13T12:56:55.291Z,7.65
2022-10-13T13:02:01.511Z,14.70
2022-10-13T13:07:05.694Z,12.85
2022-10-13T13:12:13.354Z,15.82
2022-10-13T13:17:33.029Z,11.60
2022-10-13T13:22:39.571Z,8.70
2022-10-13T13:27:41.293Z,16.05
2022-10-13T13:32:43.092Z,11.93
2022-10-13T13:37:53.170Z,12.98
2022-10-13T13:42:55.824Z,11.85
2022-10-13T13:48:00.707Z,9.45
2022-10-13T13:53:02.845Z,14.18
2022-10-13T13:58:04.544Z,13.18
2022-10-13T14:03:06.449Z,22.63
2022-10-13T14:08:08.524Z,17.25
2022-10-13T14:13:10.316Z,19.85
2022-10-13T14:18:13.448Z,16.10
2022-10-13T14:23:15.259Z,13.30
2022-10-13T14:28:18.469Z,15.98
2022-10-13T14:33:20.446Z,11.32
2022-10-13T14:38:22.191Z,19.30
2022-10-13T14:43:23.954Z,15.82
2022-10-13T14:48:25.684Z,20.50
2022-10-13T14:53:28.408Z,24.23
2022-10-13T14:58:30.350Z,20.58
2022-10-13T15:03:32.412Z,23.95
2022-10-13T15:08:34.211Z,16.15
2022-10-13T15:13:36.457Z,17.13
2022-10-13T15:18:38.467Z,24.75
2022-10-13T15:23:40.605Z,18.40
2022-10-13T15:28:45.080Z,32.30
2022-10-13T15:33:49.679Z,25.48
2022-10-13T15:38:52.039Z,24.38
2022-10-13T15:43:53.875Z,28.25
2022-10-13T15:48:55.865Z,20.48
2022-10-13T15:53:57.612Z,22.83
2022-10-13T15:58:59.348Z,21.77
2022-10-13T16:04:01.043Z,27.80
2022-10-13T16:09:03.129Z,29.35
2022-10-13T16:14:04.996Z,33.40
2022-10-13T16:19:06.752Z,28.02
2022-10-13T16:24:08.795Z,28.88
2022-10-13T16:29:10.534Z,29.80
2022-10-13T16:34:12.254Z,25.95
2022-10-13T16:39:14.016Z,26.35
2022-10-13T16:44:16.823Z,25.15
2022-10-13T16:49:18.617Z,26.17
2022-10-13T16:54:20.339Z,22.88
2022-10-13T16:59:22.088Z,24.58
2022-10-13T17:04:24.456Z,25.00
2022-10-13T17:09:26.304Z,27.13
2022-10-13T17:14:28.062Z,22.17
2022-10-13T17:19:29.814Z,28.65
2022-10-13T17:24:31.519Z,29.95
2022-10-13T17:29:33.265Z,25.50
2022-10-13T17:34:36.566Z,26.10
2022-10-13T17:39:39.734Z,31.60
2022-10-13T17:44:42.745Z,24.42
2022-10-13T17:49:44.460Z,25.85
2022-10-13T17:54:46.178Z,29.52
2022-10-13T17:59:47.910Z,24.40
2022-10-13T18:04:49.619Z,27.08
2022-10-13T18:09:52.777Z,22.73
2022-10-13T18:14:54.548Z,27.95
2022-10-13T18:19:57.802Z,26.13
2022-10-13T18:24:59.548Z,29.98
2022-10-13T18:30:01.291Z,28.58
2022-10-13T18:35:03.023Z,27.90
2022-10-13T18:40:05.179Z,37.50
2022-10-13T18:45:07.443Z,30.17
2022-10-13T18:50:10.359Z,26.95
2022-10-13T18:55:12.105Z,25.35
2022-10-13T19:00:14.304Z,31.00
2022-10-13T19:05:16.077Z,30.73
2022-10-13T19:10:17.847Z,22.95
2022-10-13T19:15:19.561Z,32.13
2022-10-13T19:20:21.286Z,27.38
2022-10-13T19:25:23.134Z,27.10
2022-10-13T19:30:27.666Z,27.60
2022-10-13T19:35:29.534Z,26.65
2022-10-13T19:40:31.656Z,31.27
2022-10-13T19:45:33.363Z,29.65
2022-10-13T19:50:35.115Z,36.00
2022-10-13T19:55:44.444Z,30.35
2022-10-13T20:00:46.907Z,39.60
2022-10-13T20:05:48.705Z,29.15
2022-10-13T20:10:50.440Z,38.67
2022-10-13T20:15:52.256Z,35.72
2022-10-13T20:20:53.996Z,32.38
2022-10-13T20:25:55.735Z,35.28
2022-10-13T20:30:58.446Z,39.22
2022-10-13T20:36:06.692Z,31.58
2022-10-13T20:41:10.441Z,33.67
2022-10-13T20:46:12.584Z,29.20
2022-10-13T20:51:16.455Z,33.08
2022-10-13T20:56:21.333Z,38.08
2022-10-13T21:01:23.578Z,43.97
2022-10-13T21:06:25.957Z,29.80
2022-10-13T21:11:27.820Z,33.60
2022-10-13T21:16:29.620Z,35.35
2022-10-13T21:21:34.340Z,35.13
2022-10-13T21:26:36.791Z,38.95
2022-10-13T21:31:38.508Z,30.85
2022-10-13T21:36:44.252Z,41.60
2022-10-13T21:41:45.968Z,33.45
2022-10-13T21:46:47.683Z,31.55
2022-10-13T21:51:49.405Z,30.75
2022-10-13T21:56:51.190Z,35.42
2022-10-13T22:01:52.923Z,38.00
2022-10-13T22:06:54.686Z,32.42
2022-10-13T22:11:56.735Z,25.73
2022-10-13T22:16:58.532Z,33.80
2022-10-13T22:22:00.319Z,33.13
2022-10-13T22:27:02.098Z,33.67
2022-10-13T22:32:04.242Z,27.25
2022-10-13T22:37:05.995Z,34.08
2022-10-13T22:42:07.736Z,35.78
2022-10-13T22:47:09.608Z,27.17
2022-10-13T22:52:11.345Z,33.22
2022-10-13T22:57:13.087Z,29.65
2022-10-13T23:02:14.826Z,27.90
2022-10-13T23:07:16.568Z,28.42
2022-10-13T23:12:18.279Z,29.40
2022-10-13T23:17:20.469Z,30.38
2022-10-13T23:22:22.411Z,21.65
2022-10-13T23:27:24.209Z,25.55
2022-10-13T23:32:26.017Z,20.67
2022-10-13T23:37:27.741Z,25.55
2022-10-13T23:42:29.477Z,27.58
2022-10-13T23:47:31.480Z,23.00
2022-10-13T23:52:33.317Z,19.00
2022-10-13T23:57:35.080Z,26.70
